sensor_id;sensor_type;location;lat;lon;timestamp;temperature;humidity
14192;DHT22;7177;48.572;7.838;2024-03-06T00:01:29;6.90;99.90
14192;DHT22;7177;48.572;7.838;2024-03-06T00:03:55;7.00;99.90
14192;DHT22;7177;48.572;7.838;2024-03-06T00:06:20;7.00;99.90
14192;DHT22;7177;48.572;7.838;2024-03-06T00:08:46;7.00;99.90
14192;DHT22;7177;48.572;7.838;2024-03-06T00:11:11;7.00;99.90
14192;DHT22;7177;48.572;7.838;2024-03-06T00:13:37;7.00;99.90
14192;DHT22;7177;48.572;7.838;2024-03-06T00:16:03;7.00;99.90
14192;DHT22;7177;48.572;7.838;2024-03-06T00:18:29;7.00;99.90
14192;DHT22;7177;48.572;7.838;2024-03-06T00:20:54;7.00;99.90
14192;DHT22;7177;48.572;7.838;2024-03-06T00:23:20;7.00;99.90
14192;DHT22;7177;48.572;7.838;2024-03-06T00:25:46;7.00;99.90
14192;DHT22;7177;48.572;7.838;2024-03-06T00:28:12;6.90;99.90
14192;DHT22;7177;48.572;7.838;2024-03-06T00:30:37;6.90;99.90
14192;DHT22;7177;48.572;7.838;2024-03-06T00:33:03;6.90;99.90
14192;DHT22;7177;48.572;7.838;2024-03-06T00:35:28;6.90;99.90
14192;DHT22;7177;48.572;7.838;2024-03-06T00:37:54;6.90;99.90
14192;DHT22;7177;48.572;7.838;2024-03-06T00:40:20;6.90;99.90
14192;DHT22;7177;48.572;7.838;2024-03-06T00:42:45;6.90;99.90
14192;DHT22;7177;48.572;7.838;2024-03-06T00:45:11;6.90;99.90
14192;DHT22;7177;48.572;7.838;2024-03-06T00:47:37;6.90;99.90
14192;DHT22;7177;48.572;7.838;2024-03-06T00:50:03;6.90;99.90
14192;DHT22;7177;48.572;7.838;2024-03-06T00:52:30;6.90;99.90
14192;DHT22;7177;48.572;7.838;2024-03-06T00:54:56;6.90;99.90
14192;DHT22;7177;48.572;7.838;2024-03-06T00:57:21;6.90;99.90
14192;DHT22;7177;48.572;7.838;2024-03-06T00:59:47;6.90;99.90
14192;DHT22;7177;48.572;7.838;2024-03-06T01:02:12;6.90;99.90
14192;DHT22;7177;48.572;7.838;2024-03-06T01:04:38;6.90;99.90
14192;DHT22;7177;48.572;7.838;2024-03-06T01:07:03;7.00;99.90
14192;DHT22;7177;48.572;7.838;2024-03-06T01:09:29;7.00;99.90
14192;DHT22;7177;48.572;7.838;2024-03-06T01:11:55;7.00;99.90
14192;DHT22;7177;48.572;7.838;2024-03-06T01:14:20;7.00;99.90
14192;DHT22;7177;48.572;7.838;2024-03-06T01:16:46;7.00;99.90
14192;DHT22;7177;48.572;7.838;2024-03-06T01:19:11;6.90;99.90
14192;DHT22;7177;48.572;7.838;2024-03-06T01:21:38;6.90;99.90
14192;DHT22;7177;48.572;7.838;2024-03-06T01:24:04;6.90;99.90
14192;DHT22;7177;48.572;7.838;2024-03-06T01:26:29;6.90;99.90
14192;DHT22;7177;48.572;7.838;2024-03-06T01:28:55;6.90;99.90
14192;DHT22;7177;48.572;7.838;2024-03-06T01:31:20;6.90;99.90
14192;DHT22;7177;48.572;7.838;2024-03-06T01:33:46;7.00;99.90
14192;DHT22;7177;48.572;7.838;2024-03-06T01:36:11;7.00;99.90
14192;DHT22;7177;48.572;7.838;2024-03-06T01:38:38;7.00;99.90
14192;DHT22;7177;48.572;7.838;2024-03-06T01:41:03;6.90;99.90
14192;DHT22;7177;48.572;7.838;2024-03-06T01:43:37;7.00;99.90
14192;DHT22;7177;48.572;7.838;2024-03-06T01:46:03;6.90;99.90
14192;DHT22;7177;48.572;7.838;2024-03-06T01:48:30;6.90;99.90
14192;DHT22;7177;48.572;7.838;2024-03-06T01:50:58;6.90;99.90
14192;DHT22;7177;48.572;7.838;2024-03-06T01:53:27;6.90;99.90
14192;DHT22;7177;48.572;7.838;2024-03-06T01:55:54;6.90;99.90
14192;DHT22;7177;48.572;7.838;2024-03-06T01:58:21;7.00;99.90
14192;DHT22;7177;48.572;7.838;2024-03-06T02:00:47;7.00;99.90
14192;DHT22;7177;48.572;7.838;2024-03-06T02:03:13;6.90;99.90
14192;DHT22;7177;48.572;7.838;2024-03-06T02:05:39;7.00;99.90
14192;DHT22;7177;48.572;7.838;2024-03-06T02:08:06;7.00;99.90
14192;DHT22;7177;48.572;7.838;2024-03-06T02:10:31;6.90;99.90
14192;DHT22;7177;48.572;7.838;2024-03-06T02:12:57;6.90;99.90
14192;DHT22;7177;48.572;7.838;2024-03-06T02:15:23;6.90;99.90
14192;DHT22;7177;48.572;7.838;2024-03-06T02:17:49;6.90;99.90
14192;DHT22;7177;48.572;7.838;2024-03-06T02:20:14;6.90;99.90
14192;DHT22;7177;48.572;7.838;2024-03-06T02:22:41;6.90;99.90
14192;DHT22;7177;48.572;7.838;2024-03-06T02:25:07;6.90;99.90
14192;DHT22;7177;48.572;7.838;2024-03-06T02:27:32;6.90;99.90
14192;DHT22;7177;48.572;7.838;2024-03-06T02:29:58;6.90;99.90
14192;DHT22;7177;48.572;7.838;2024-03-06T02:32:24;6.90;99.90
14192;DHT22;7177;48.572;7.838;2024-03-06T02:34:50;6.90;99.90
14192;DHT22;7177;48.572;7.838;2024-03-06T02:37:16;6.80;99.90
14192;DHT22;7177;48.572;7.838;2024-03-06T02:39:41;6.80;99.90
14192;DHT22;7177;48.572;7.838;2024-03-06T02:42:07;6.80;99.90
14192;DHT22;7177;48.572;7.838;2024-03-06T02:44:33;6.80;99.90
14192;DHT22;7177;48.572;7.838;2024-03-06T02:46:59;6.80;99.90
14192;DHT22;7177;48.572;7.838;2024-03-06T02:49:24;6.80;99.90
14192;DHT22;7177;48.572;7.838;2024-03-06T02:51:50;6.80;99.90
14192;DHT22;7177;48.572;7.838;2024-03-06T02:54:16;6.80;99.90
14192;DHT22;7177;48.572;7.838;2024-03-06T02:56:41;6.80;99.90
14192;DHT22;7177;48.572;7.838;2024-03-06T02:59:07;6.80;99.90
14192;DHT22;7177;48.572;7.838;2024-03-06T03:01:32;6.80;99.90
14192;DHT22;7177;48.572;7.838;2024-03-06T03:03:58;6.80;99.90
14192;DHT22;7177;48.572;7.838;2024-03-06T03:06:24;6.80;99.90
14192;DHT22;7177;48.572;7.838;2024-03-06T03:08:49;6.80;99.90
14192;DHT22;7177;48.572;7.838;2024-03-06T03:11:15;6.80;99.90
14192;DHT22;7177;48.572;7.838;2024-03-06T03:13:41;6.80;99.90
14192;DHT22;7177;48.572;7.838;2024-03-06T03:16:06;6.80;99.90
14192;DHT22;7177;48.572;7.838;2024-03-06T03:18:32;6.80;99.90
14192;DHT22;7177;48.572;7.838;2024-03-06T03:20:58;6.80;99.90
14192;DHT22;7177;48.572;7.838;2024-03-06T03:23:23;6.70;99.90
14192;DHT22;7177;48.572;7.838;2024-03-06T03:25:49;6.70;99.90
14192;DHT22;7177;48.572;7.838;2024-03-06T03:28:15;6.70;99.90
14192;DHT22;7177;48.572;7.838;2024-03-06T03:30:42;6.70;99.90
14192;DHT22;7177;48.572;7.838;2024-03-06T03:33:09;6.70;99.90
14192;DHT22;7177;48.572;7.838;2024-03-06T03:35:35;6.70;99.90
14192;DHT22;7177;48.572;7.838;2024-03-06T03:38:00;6.70;99.90
14192;DHT22;7177;48.572;7.838;2024-03-06T03:40:26;6.70;99.90
14192;DHT22;7177;48.572;7.838;2024-03-06T03:42:51;6.70;99.90
14192;DHT22;7177;48.572;7.838;2024-03-06T03:45:17;6.60;99.90
14192;DHT22;7177;48.572;7.838;2024-03-06T03:47:43;6.60;99.90
14192;DHT22;7177;48.572;7.838;2024-03-06T03:50:09;6.60;99.90
14192;DHT22;7177;48.572;7.838;2024-03-06T03:52:34;6.50;99.90
14192;DHT22;7177;48.572;7.838;2024-03-06T03:55:00;6.50;99.90
14192;DHT22;7177;48.572;7.838;2024-03-06T03:57:26;6.50;99.90
14192;DHT22;7177;48.572;7.838;2024-03-06T03:59:51;6.50;99.90
14192;DHT22;7177;48.572;7.838;2024-03-06T04:02:17;6.50;99.90
14192;DHT22;7177;48.572;7.838;2024-03-06T04:04:42;6.50;99.90
14192;DHT22;7177;48.572;7.838;2024-03-06T04:07:08;6.50;99.90
14192;DHT22;7177;48.572;7.838;2024-03-06T04:09:34;6.50;99.90
14192;DHT22;7177;48.572;7.838;2024-03-06T04:12:04;6.50;99.90
14192;DHT22;7177;48.572;7.838;2024-03-06T04:14:30;6.50;99.90
14192;DHT22;7177;48.572;7.838;2024-03-06T04:16:56;6.50;99.90
14192;DHT22;7177;48.572;7.838;2024-03-06T04:19:21;6.50;99.90
14192;DHT22;7177;48.572;7.838;2024-03-06T04:21:47;6.50;99.90
14192;DHT22;7177;48.572;7.838;2024-03-06T04:24:12;6.50;99.90
14192;DHT22;7177;48.572;7.838;2024-03-06T04:26:38;6.50;99.90
14192;DHT22;7177;48.572;7.838;2024-03-06T04:29:04;6.60;99.90
14192;DHT22;7177;48.572;7.838;2024-03-06T04:31:29;6.60;99.90
14192;DHT22;7177;48.572;7.838;2024-03-06T04:33:55;6.60;99.90
14192;DHT22;7177;48.572;7.838;2024-03-06T04:36:20;6.60;99.90
14192;DHT22;7177;48.572;7.838;2024-03-06T04:38:46;6.60;99.90
14192;DHT22;7177;48.572;7.838;2024-03-06T04:41:11;6.60;99.90
14192;DHT22;7177;48.572;7.838;2024-03-06T04:43:37;6.60;99.90
14192;DHT22;7177;48.572;7.838;2024-03-06T04:46:03;6.60;99.90
14192;DHT22;7177;48.572;7.838;2024-03-06T04:48:29;6.60;99.90
14192;DHT22;7177;48.572;7.838;2024-03-06T04:50:54;6.60;99.90
14192;DHT22;7177;48.572;7.838;2024-03-06T04:53:20;6.70;99.90
14192;DHT22;7177;48.572;7.838;2024-03-06T04:55:46;6.60;99.90
14192;DHT22;7177;48.572;7.838;2024-03-06T04:58:12;6.60;99.90
14192;DHT22;7177;48.572;7.838;2024-03-06T05:00:38;6.80;99.90
14192;DHT22;7177;48.572;7.838;2024-03-06T05:03:03;7.00;99.90
14192;DHT22;7177;48.572;7.838;2024-03-06T05:05:29;7.20;99.90
14192;DHT22;7177;48.572;7.838;2024-03-06T05:07:55;7.30;99.90
14192;DHT22;7177;48.572;7.838;2024-03-06T05:10:20;7.30;99.90
14192;DHT22;7177;48.572;7.838;2024-03-06T05:12:46;7.20;99.90
14192;DHT22;7177;48.572;7.838;2024-03-06T05:15:12;7.10;99.90
14192;DHT22;7177;48.572;7.838;2024-03-06T05:17:38;7.10;99.90
14192;DHT22;7177;48.572;7.838;2024-03-06T05:20:04;7.00;99.90
14192;DHT22;7177;48.572;7.838;2024-03-06T05:22:30;7.00;99.90
14192;DHT22;7177;48.572;7.838;2024-03-06T05:24:56;7.00;99.90
14192;DHT22;7177;48.572;7.838;2024-03-06T05:27:21;6.90;99.90
14192;DHT22;7177;48.572;7.838;2024-03-06T05:29:47;6.80;99.90
14192;DHT22;7177;48.572;7.838;2024-03-06T05:32:12;6.80;99.90
14192;DHT22;7177;48.572;7.838;2024-03-06T05:34:38;6.70;99.90
14192;DHT22;7177;48.572;7.838;2024-03-06T05:37:04;6.70;99.90
14192;DHT22;7177;48.572;7.838;2024-03-06T05:39:30;6.70;99.90
14192;DHT22;7177;48.572;7.838;2024-03-06T05:42:00;6.70;99.90
14192;DHT22;7177;48.572;7.838;2024-03-06T05:44:28;6.70;99.90
14192;DHT22;7177;48.572;7.838;2024-03-06T05:46:53;6.70;99.90
14192;DHT22;7177;48.572;7.838;2024-03-06T05:49:19;6.70;99.90
14192;DHT22;7177;48.572;7.838;2024-03-06T05:51:44;6.70;99.90
14192;DHT22;7177;48.572;7.838;2024-03-06T05:54:11;6.60;99.90
14192;DHT22;7177;48.572;7.838;2024-03-06T05:56:36;6.60;99.90
14192;DHT22;7177;48.572;7.838;2024-03-06T05:59:03;6.60;99.90
14192;DHT22;7177;48.572;7.838;2024-03-06T06:01:30;6.60;99.90
14192;DHT22;7177;48.572;7.838;2024-03-06T06:03:56;6.60;99.90
14192;DHT22;7177;48.572;7.838;2024-03-06T06:06:21;6.60;99.90
14192;DHT22;7177;48.572;7.838;2024-03-06T06:08:47;6.60;99.90
14192;DHT22;7177;48.572;7.838;2024-03-06T06:11:13;6.60;99.90
14192;DHT22;7177;48.572;7.838;2024-03-06T06:13:39;6.60;99.90
14192;DHT22;7177;48.572;7.838;2024-03-06T06:16:07;6.60;99.90
14192;DHT22;7177;48.572;7.838;2024-03-06T06:18:32;6.60;99.90
14192;DHT22;7177;48.572;7.838;2024-03-06T06:20:59;6.70;99.90
14192;DHT22;7177;48.572;7.838;2024-03-06T06:23:24;6.70;99.90
14192;DHT22;7177;48.572;7.838;2024-03-06T06:25:50;6.70;99.90
14192;DHT22;7177;48.572;7.838;2024-03-06T06:28:16;6.60;99.90
14192;DHT22;7177;48.572;7.838;2024-03-06T06:30:41;6.60;99.90
14192;DHT22;7177;48.572;7.838;2024-03-06T06:33:07;6.60;99.90
14192;DHT22;7177;48.572;7.838;2024-03-06T06:35:33;6.60;99.90
14192;DHT22;7177;48.572;7.838;2024-03-06T06:38:00;6.60;99.90
14192;DHT22;7177;48.572;7.838;2024-03-06T06:40:25;6.60;99.90
14192;DHT22;7177;48.572;7.838;2024-03-06T06:42:52;6.60;99.90
14192;DHT22;7177;48.572;7.838;2024-03-06T06:45:21;6.60;99.90
14192;DHT22;7177;48.572;7.838;2024-03-06T06:47:51;6.60;99.90
14192;DHT22;7177;48.572;7.838;2024-03-06T06:50:17;6.60;99.90
14192;DHT22;7177;48.572;7.838;2024-03-06T06:52:43;6.60;99.90
14192;DHT22;7177;48.572;7.838;2024-03-06T06:55:09;6.60;99.90
14192;DHT22;7177;48.572;7.838;2024-03-06T06:57:37;6.60;99.90
14192;DHT22;7177;48.572;7.838;2024-03-06T07:00:04;6.70;99.90
14192;DHT22;7177;48.572;7.838;2024-03-06T07:02:41;6.70;99.90
14192;DHT22;7177;48.572;7.838;2024-03-06T07:05:08;6.70;99.90
14192;DHT22;7177;48.572;7.838;2024-03-06T07:07:34;6.70;99.90
14192;DHT22;7177;48.572;7.838;2024-03-06T07:10:00;6.80;99.90
14192;DHT22;7177;48.572;7.838;2024-03-06T07:12:26;6.80;99.90
14192;DHT22;7177;48.572;7.838;2024-03-06T07:14:51;6.80;99.90
14192;DHT22;7177;48.572;7.838;2024-03-06T07:17:17;6.80;99.90
14192;DHT22;7177;48.572;7.838;2024-03-06T07:19:43;6.80;99.90
14192;DHT22;7177;48.572;7.838;2024-03-06T07:22:08;6.80;99.90
14192;DHT22;7177;48.572;7.838;2024-03-06T07:24:34;6.90;99.90
14192;DHT22;7177;48.572;7.838;2024-03-06T07:26:59;7.10;99.90
14192;DHT22;7177;48.572;7.838;2024-03-06T07:29:27;7.20;99.90
14192;DHT22;7177;48.572;7.838;2024-03-06T07:31:52;7.20;99.90
14192;DHT22;7177;48.572;7.838;2024-03-06T07:34:19;7.10;99.90
14192;DHT22;7177;48.572;7.838;2024-03-06T07:36:45;7.10;99.90
14192;DHT22;7177;48.572;7.838;2024-03-06T07:39:11;7.10;99.90
14192;DHT22;7177;48.572;7.838;2024-03-06T07:41:37;7.10;99.90
14192;DHT22;7177;48.572;7.838;2024-03-06T07:44:03;7.00;99.90
14192;DHT22;7177;48.572;7.838;2024-03-06T07:46:28;7.00;99.90
14192;DHT22;7177;48.572;7.838;2024-03-06T07:48:54;7.00;99.90
14192;DHT22;7177;48.572;7.838;2024-03-06T07:51:20;7.00;99.90
14192;DHT22;7177;48.572;7.838;2024-03-06T07:53:46;7.00;99.90
14192;DHT22;7177;48.572;7.838;2024-03-06T07:56:11;7.00;99.90
14192;DHT22;7177;48.572;7.838;2024-03-06T07:58:38;7.10;99.90
14192;DHT22;7177;48.572;7.838;2024-03-06T08:01:04;7.10;99.90
14192;DHT22;7177;48.572;7.838;2024-03-06T08:03:29;7.10;99.90
14192;DHT22;7177;48.572;7.838;2024-03-06T08:05:55;7.20;99.90
14192;DHT22;7177;48.572;7.838;2024-03-06T08:08:21;7.20;99.90
14192;DHT22;7177;48.572;7.838;2024-03-06T08:10:47;7.20;99.90
14192;DHT22;7177;48.572;7.838;2024-03-06T08:13:13;7.20;99.90
14192;DHT22;7177;48.572;7.838;2024-03-06T08:15:39;7.30;99.90
14192;DHT22;7177;48.572;7.838;2024-03-06T08:18:05;7.30;99.90
14192;DHT22;7177;48.572;7.838;2024-03-06T08:20:31;7.30;99.90
14192;DHT22;7177;48.572;7.838;2024-03-06T08:22:57;7.40;99.90
14192;DHT22;7177;48.572;7.838;2024-03-06T08:25:22;7.40;99.90
14192;DHT22;7177;48.572;7.838;2024-03-06T08:27:48;7.40;99.90
14192;DHT22;7177;48.572;7.838;2024-03-06T08:30:14;7.40;99.90
14192;DHT22;7177;48.572;7.838;2024-03-06T08:32:39;7.40;99.90
14192;DHT22;7177;48.572;7.838;2024-03-06T08:35:08;7.40;99.90
14192;DHT22;7177;48.572;7.838;2024-03-06T08:37:40;7.40;99.90
14192;DHT22;7177;48.572;7.838;2024-03-06T08:40:07;7.50;99.90
14192;DHT22;7177;48.572;7.838;2024-03-06T08:42:33;7.60;99.90
14192;DHT22;7177;48.572;7.838;2024-03-06T08:44:58;7.60;99.90
14192;DHT22;7177;48.572;7.838;2024-03-06T08:47:24;7.70;99.90
14192;DHT22;7177;48.572;7.838;2024-03-06T08:49:50;7.70;99.90
14192;DHT22;7177;48.572;7.838;2024-03-06T08:52:15;7.70;99.90
14192;DHT22;7177;48.572;7.838;2024-03-06T08:54:41;7.80;99.90
14192;DHT22;7177;48.572;7.838;2024-03-06T08:57:07;7.80;99.90
14192;DHT22;7177;48.572;7.838;2024-03-06T08:59:34;7.80;99.90
14192;DHT22;7177;48.572;7.838;2024-03-06T09:02:15;7.70;99.90
14192;DHT22;7177;48.572;7.838;2024-03-06T09:04:44;7.80;99.90
14192;DHT22;7177;48.572;7.838;2024-03-06T09:07:10;7.80;99.90
14192;DHT22;7177;48.572;7.838;2024-03-06T09:09:36;7.90;99.90
14192;DHT22;7177;48.572;7.838;2024-03-06T09:12:05;7.90;99.90
14192;DHT22;7177;48.572;7.838;2024-03-06T09:14:35;8.00;99.90
14192;DHT22;7177;48.572;7.838;2024-03-06T09:17:00;8.40;99.90
14192;DHT22;7177;48.572;7.838;2024-03-06T09:19:26;9.70;99.90
14192;DHT22;7177;48.572;7.838;2024-03-06T09:21:52;10.80;99.90
14192;DHT22;7177;48.572;7.838;2024-03-06T09:24:17;11.10;99.90
14192;DHT22;7177;48.572;7.838;2024-03-06T09:26:43;10.90;99.90
14192;DHT22;7177;48.572;7.838;2024-03-06T09:29:09;10.60;99.90
14192;DHT22;7177;48.572;7.838;2024-03-06T09:31:35;10.30;99.90
14192;DHT22;7177;48.572;7.838;2024-03-06T09:34:02;10.00;99.90
14192;DHT22;7177;48.572;7.838;2024-03-06T09:36:28;9.60;99.90
14192;DHT22;7177;48.572;7.838;2024-03-06T09:38:54;9.40;99.90
14192;DHT22;7177;48.572;7.838;2024-03-06T09:41:21;9.30;99.90
14192;DHT22;7177;48.572;7.838;2024-03-06T09:43:47;9.20;99.90
14192;DHT22;7177;48.572;7.838;2024-03-06T09:46:12;9.10;99.90
14192;DHT22;7177;48.572;7.838;2024-03-06T09:48:45;9.10;99.90
14192;DHT22;7177;48.572;7.838;2024-03-06T09:51:11;9.10;99.90
14192;DHT22;7177;48.572;7.838;2024-03-06T09:53:38;9.20;99.90
14192;DHT22;7177;48.572;7.838;2024-03-06T09:56:05;9.20;99.90
14192;DHT22;7177;48.572;7.838;2024-03-06T09:58:31;9.40;99.90
14192;DHT22;7177;48.572;7.838;2024-03-06T10:00:59;9.50;99.90
14192;DHT22;7177;48.572;7.838;2024-03-06T10:03:25;9.60;99.90
14192;DHT22;7177;48.572;7.838;2024-03-06T10:05:52;9.70;99.90
14192;DHT22;7177;48.572;7.838;2024-03-06T10:08:20;9.70;99.90
14192;DHT22;7177;48.572;7.838;2024-03-06T10:10:49;9.70;99.90
14192;DHT22;7177;48.572;7.838;2024-03-06T10:13:16;9.60;99.90
14192;DHT22;7177;48.572;7.838;2024-03-06T10:15:55;9.20;99.90
14192;DHT22;7177;48.572;7.838;2024-03-06T10:18:20;9.10;99.90
14192;DHT22;7177;48.572;7.838;2024-03-06T10:20:46;9.20;99.90
14192;DHT22;7177;48.572;7.838;2024-03-06T10:23:11;9.20;99.90
14192;DHT22;7177;48.572;7.838;2024-03-06T10:25:37;9.30;99.90
14192;DHT22;7177;48.572;7.838;2024-03-06T10:30:37;9.70;99.90
14192;DHT22;7177;48.572;7.838;2024-03-06T10:33:03;9.80;99.90
14192;DHT22;7177;48.572;7.838;2024-03-06T10:35:31;9.80;99.90
14192;DHT22;7177;48.572;7.838;2024-03-06T10:38:02;9.70;99.90
14192;DHT22;7177;48.572;7.838;2024-03-06T10:40:31;9.50;99.90
14192;DHT22;7177;48.572;7.838;2024-03-06T10:42:58;9.30;99.90
14192;DHT22;7177;48.572;7.838;2024-03-06T10:48:02;9.40;99.90
14192;DHT22;7177;48.572;7.838;2024-03-06T10:50:28;9.40;99.90
14192;DHT22;7177;48.572;7.838;2024-03-06T10:52:54;9.50;99.90
14192;DHT22;7177;48.572;7.838;2024-03-06T10:55:21;9.50;99.90
14192;DHT22;7177;48.572;7.838;2024-03-06T10:57:47;9.50;99.90
14192;DHT22;7177;48.572;7.838;2024-03-06T11:00:14;9.50;99.90
14192;DHT22;7177;48.572;7.838;2024-03-06T11:02:46;9.50;99.90
14192;DHT22;7177;48.572;7.838;2024-03-06T11:05:14;9.40;99.90
14192;DHT22;7177;48.572;7.838;2024-03-06T11:07:39;9.50;99.90
14192;DHT22;7177;48.572;7.838;2024-03-06T11:10:05;9.70;99.90
14192;DHT22;7177;48.572;7.838;2024-03-06T11:12:37;9.70;99.90
14192;DHT22;7177;48.572;7.838;2024-03-06T11:17:36;9.80;99.90
14192;DHT22;7177;48.572;7.838;2024-03-06T11:28:16;9.80;99.90
14192;DHT22;7177;48.572;7.838;2024-03-06T11:31:01;9.80;99.90
14192;DHT22;7177;48.572;7.838;2024-03-06T11:33:43;9.80;99.90
14192;DHT22;7177;48.572;7.838;2024-03-06T11:36:26;9.90;99.90
14192;DHT22;7177;48.572;7.838;2024-03-06T11:39:07;9.90;99.90
14192;DHT22;7177;48.572;7.838;2024-03-06T11:41:47;10.00;99.90
14192;DHT22;7177;48.572;7.838;2024-03-06T11:44:15;10.00;99.90
14192;DHT22;7177;48.572;7.838;2024-03-06T11:46:48;10.10;99.90
14192;DHT22;7177;48.572;7.838;2024-03-06T11:49:21;10.10;99.90
14192;DHT22;7177;48.572;7.838;2024-03-06T11:51:50;10.10;99.90
14192;DHT22;7177;48.572;7.838;2024-03-06T11:54:16;10.20;99.90
14192;DHT22;7177;48.572;7.838;2024-03-06T11:56:45;10.20;99.90
14192;DHT22;7177;48.572;7.838;2024-03-06T11:59:12;10.20;99.90
14192;DHT22;7177;48.572;7.838;2024-03-06T12:01:38;10.30;99.90
14192;DHT22;7177;48.572;7.838;2024-03-06T12:04:03;10.20;99.90
14192;DHT22;7177;48.572;7.838;2024-03-06T12:06:32;10.10;99.90
14192;DHT22;7177;48.572;7.838;2024-03-06T12:08:58;9.90;99.90
14192;DHT22;7177;48.572;7.838;2024-03-06T12:11:24;9.90;99.90
14192;DHT22;7177;48.572;7.838;2024-03-06T12:13:51;10.00;99.90
14192;DHT22;7177;48.572;7.838;2024-03-06T12:16:17;10.20;99.90
14192;DHT22;7177;48.572;7.838;2024-03-06T12:18:43;10.40;99.90
14192;DHT22;7177;48.572;7.838;2024-03-06T12:21:10;10.60;99.90
14192;DHT22;7177;48.572;7.838;2024-03-06T12:23:36;10.70;99.90
14192;DHT22;7177;48.572;7.838;2024-03-06T12:26:04;10.80;99.90
14192;DHT22;7177;48.572;7.838;2024-03-06T12:28:30;11.10;99.90
14192;DHT22;7177;48.572;7.838;2024-03-06T12:30:55;11.10;99.90
14192;DHT22;7177;48.572;7.838;2024-03-06T12:33:24;11.00;99.90
14192;DHT22;7177;48.572;7.838;2024-03-06T12:36:06;10.90;99.90
14192;DHT22;7177;48.572;7.838;2024-03-06T12:38:32;10.90;99.90
14192;DHT22;7177;48.572;7.838;2024-03-06T12:40:59;10.80;99.90
14192;DHT22;7177;48.572;7.838;2024-03-06T12:43:25;10.90;99.90
14192;DHT22;7177;48.572;7.838;2024-03-06T12:45:51;10.90;99.90
14192;DHT22;7177;48.572;7.838;2024-03-06T12:48:23;10.80;99.90
14192;DHT22;7177;48.572;7.838;2024-03-06T12:50:49;10.70;99.90
14192;DHT22;7177;48.572;7.838;2024-03-06T12:53:20;10.60;99.90
14192;DHT22;7177;48.572;7.838;2024-03-06T12:55:47;10.60;99.90
14192;DHT22;7177;48.572;7.838;2024-03-06T12:58:13;10.50;99.90
14192;DHT22;7177;48.572;7.838;2024-03-06T13:00:39;10.50;99.90
14192;DHT22;7177;48.572;7.838;2024-03-06T13:03:05;10.40;99.90
14192;DHT22;7177;48.572;7.838;2024-03-06T13:05:30;10.30;99.90
14192;DHT22;7177;48.572;7.838;2024-03-06T13:07:57;10.30;99.90
14192;DHT22;7177;48.572;7.838;2024-03-06T13:10:22;10.30;99.90
14192;DHT22;7177;48.572;7.838;2024-03-06T13:12:48;10.20;99.90
14192;DHT22;7177;48.572;7.838;2024-03-06T13:15:13;10.30;99.90
14192;DHT22;7177;48.572;7.838;2024-03-06T13:17:39;10.40;99.90
14192;DHT22;7177;48.572;7.838;2024-03-06T13:20:06;10.50;99.90
14192;DHT22;7177;48.572;7.838;2024-03-06T13:22:35;10.60;99.90
14192;DHT22;7177;48.572;7.838;2024-03-06T13:25:00;10.70;99.90
14192;DHT22;7177;48.572;7.838;2024-03-06T13:27:26;10.70;99.90
14192;DHT22;7177;48.572;7.838;2024-03-06T13:29:52;10.70;99.90
14192;DHT22;7177;48.572;7.838;2024-03-06T13:32:18;10.60;99.90
14192;DHT22;7177;48.572;7.838;2024-03-06T13:34:43;10.60;99.90
14192;DHT22;7177;48.572;7.838;2024-03-06T13:37:09;10.50;99.90
14192;DHT22;7177;48.572;7.838;2024-03-06T13:39:35;10.40;99.90
14192;DHT22;7177;48.572;7.838;2024-03-06T13:42:01;10.30;99.90
14192;DHT22;7177;48.572;7.838;2024-03-06T13:44:26;10.40;99.90
14192;DHT22;7177;48.572;7.838;2024-03-06T13:46:52;10.30;99.90
14192;DHT22;7177;48.572;7.838;2024-03-06T13:49:37;10.20;99.90
14192;DHT22;7177;48.572;7.838;2024-03-06T13:52:04;10.10;99.90
14192;DHT22;7177;48.572;7.838;2024-03-06T13:54:31;10.00;99.90
14192;DHT22;7177;48.572;7.838;2024-03-06T13:56:56;10.00;99.90
14192;DHT22;7177;48.572;7.838;2024-03-06T13:59:33;9.90;99.90
14192;DHT22;7177;48.572;7.838;2024-03-06T14:01:59;9.80;99.90
14192;DHT22;7177;48.572;7.838;2024-03-06T14:04:25;9.80;99.90
14192;DHT22;7177;48.572;7.838;2024-03-06T14:06:51;9.80;99.90
14192;DHT22;7177;48.572;7.838;2024-03-06T14:09:17;9.80;99.90
14192;DHT22;7177;48.572;7.838;2024-03-06T14:11:43;9.80;99.90
14192;DHT22;7177;48.572;7.838;2024-03-06T14:14:09;9.80;99.90
14192;DHT22;7177;48.572;7.838;2024-03-06T14:16:35;9.80;99.90
14192;DHT22;7177;48.572;7.838;2024-03-06T14:19:01;9.80;99.90
14192;DHT22;7177;48.572;7.838;2024-03-06T14:21:26;9.80;99.90
14192;DHT22;7177;48.572;7.838;2024-03-06T14:23:52;9.80;99.90
14192;DHT22;7177;48.572;7.838;2024-03-06T14:26:18;9.80;99.90
14192;DHT22;7177;48.572;7.838;2024-03-06T14:28:43;9.80;99.90
14192;DHT22;7177;48.572;7.838;2024-03-06T14:31:09;9.80;99.90
14192;DHT22;7177;48.572;7.838;2024-03-06T14:33:39;9.80;99.90
14192;DHT22;7177;48.572;7.838;2024-03-06T14:36:05;9.80;99.90
14192;DHT22;7177;48.572;7.838;2024-03-06T14:38:31;9.80;99.90
14192;DHT22;7177;48.572;7.838;2024-03-06T14:40:58;9.80;99.90
14192;DHT22;7177;48.572;7.838;2024-03-06T14:43:24;9.80;99.90
14192;DHT22;7177;48.572;7.838;2024-03-06T14:45:50;9.80;99.90
14192;DHT22;7177;48.572;7.838;2024-03-06T14:48:16;9.80;99.90
14192;DHT22;7177;48.572;7.838;2024-03-06T14:50:41;9.70;99.90
14192;DHT22;7177;48.572;7.838;2024-03-06T14:53:07;9.70;99.90
14192;DHT22;7177;48.572;7.838;2024-03-06T14:55:33;9.60;99.90
14192;DHT22;7177;48.572;7.838;2024-03-06T14:57:59;9.60;99.90
14192;DHT22;7177;48.572;7.838;2024-03-06T15:00:24;9.60;99.90
14192;DHT22;7177;48.572;7.838;2024-03-06T15:02:50;9.60;99.90
14192;DHT22;7177;48.572;7.838;2024-03-06T15:05:15;9.60;99.90
14192;DHT22;7177;48.572;7.838;2024-03-06T15:07:41;9.60;99.90
14192;DHT22;7177;48.572;7.838;2024-03-06T15:10:07;9.60;99.90
14192;DHT22;7177;48.572;7.838;2024-03-06T15:12:36;9.60;99.90
14192;DHT22;7177;48.572;7.838;2024-03-06T15:15:03;9.60;99.90
14192;DHT22;7177;48.572;7.838;2024-03-06T15:17:31;9.60;99.90
14192;DHT22;7177;48.572;7.838;2024-03-06T15:19:58;9.50;99.90
14192;DHT22;7177;48.572;7.838;2024-03-06T15:22:23;9.50;99.90
14192;DHT22;7177;48.572;7.838;2024-03-06T15:24:49;9.50;99.90
14192;DHT22;7177;48.572;7.838;2024-03-06T15:27:17;9.40;99.90
14192;DHT22;7177;48.572;7.838;2024-03-06T15:29:43;9.40;99.90
14192;DHT22;7177;48.572;7.838;2024-03-06T15:32:11;9.40;99.90
14192;DHT22;7177;48.572;7.838;2024-03-06T15:34:37;9.40;99.90
14192;DHT22;7177;48.572;7.838;2024-03-06T15:37:02;9.40;99.90
14192;DHT22;7177;48.572;7.838;2024-03-06T15:39:28;9.40;99.90
14192;DHT22;7177;48.572;7.838;2024-03-06T15:41:54;9.40;99.90
14192;DHT22;7177;48.572;7.838;2024-03-06T15:44:21;9.40;99.90
14192;DHT22;7177;48.572;7.838;2024-03-06T15:46:46;9.30;99.90
14192;DHT22;7177;48.572;7.838;2024-03-06T15:49:22;9.30;99.90
14192;DHT22;7177;48.572;7.838;2024-03-06T15:51:51;9.20;99.90
14192;DHT22;7177;48.572;7.838;2024-03-06T15:54:16;9.20;99.90
14192;DHT22;7177;48.572;7.838;2024-03-06T15:56:42;9.20;99.90
14192;DHT22;7177;48.572;7.838;2024-03-06T15:59:07;9.10;99.90
14192;DHT22;7177;48.572;7.838;2024-03-06T16:01:33;9.00;99.90
14192;DHT22;7177;48.572;7.838;2024-03-06T16:03:58;8.90;99.90
14192;DHT22;7177;48.572;7.838;2024-03-06T16:06:24;8.90;99.90
14192;DHT22;7177;48.572;7.838;2024-03-06T16:08:49;8.90;99.90
14192;DHT22;7177;48.572;7.838;2024-03-06T16:11:15;8.90;99.90